createdAt,value
2018-04-24T00:01:49.015Z,9.60
2018-04-24T00:04:15.310Z,9.46
2018-04-24T00:06:41.612Z,9.40
2018-04-24T00:09:07.895Z,9.38
2018-04-24T00:11:34.587Z,9.26
2018-04-24T00:14:00.912Z,9.57
2018-04-24T00:16:27.186Z,9.54
2018-04-24T00:18:53.544Z,9.43
2018-04-24T00:21:19.816Z,9.46
2018-04-24T00:23:46.105Z,9.51
2018-04-24T00:26:12.415Z,9.45
2018-04-24T00:28:38.680Z,9.46
2018-04-24T00:31:04.991Z,9.64
2018-04-24T00:33:31.877Z,10.03
2018-04-24T00:35:58.211Z,10.13
2018-04-24T00:38:25.435Z,10.04
2018-04-24T00:40:51.754Z,9.91
2018-04-24T00:43:18.011Z,9.77
2018-04-24T00:45:44.354Z,9.53
2018-04-24T00:48:10.671Z,9.55
2018-04-24T00:50:36.935Z,9.18
2018-04-24T00:53:15.840Z,8.95
2018-04-24T00:55:42.146Z,9.11
2018-04-24T00:58:08.412Z,8.92
2018-04-24T01:00:40.356Z,8.95
2018-04-24T01:03:06.666Z,8.88
2018-04-24T01:05:32.975Z,8.71
2018-04-24T01:07:59.274Z,8.81
2018-04-24T01:10:25.622Z,8.93
2018-04-24T01:12:51.891Z,8.97
2018-04-24T01:15:18.175Z,9.14
2018-04-24T01:17:44.838Z,8.92
2018-04-24T01:20:11.120Z,8.41
2018-04-24T01:22:37.392Z,8.65
2018-04-24T01:25:04.183Z,8.25
2018-04-24T01:27:30.442Z,8.18
2018-04-24T01:29:56.714Z,8.16
2018-04-24T01:32:24.400Z,8.17
2018-04-24T01:34:50.675Z,8.34
2018-04-24T01:37:16.941Z,8.13
2018-04-24T01:39:43.279Z,8.30
2018-04-24T01:42:09.565Z,8.46
2018-04-24T01:44:35.895Z,8.39
2018-04-24T01:47:02.216Z,8.46
2018-04-24T01:49:28.507Z,8.48
2018-04-24T01:51:54.792Z,8.82
2018-04-24T01:54:21.384Z,9.05
2018-04-24T01:56:47.698Z,9.12
2018-04-24T01:59:14.450Z,8.97
2018-04-24T02:01:43.651Z,8.77
2018-04-24T02:04:09.932Z,8.92
2018-04-24T02:06:36.278Z,9.07
2018-04-24T02:09:02.666Z,9.12
2018-04-24T02:11:28.944Z,8.89
2018-04-24T02:13:56.294Z,9.05
2018-04-24T02:16:22.548Z,8.83
2018-04-24T02:18:48.871Z,8.58
2018-04-24T02:21:15.159Z,8.41
2018-04-24T02:23:41.432Z,8.32
2018-04-24T02:26:07.757Z,8.34
2018-04-24T02:28:34.022Z,7.92
2018-04-24T02:31:00.647Z,7.54
2018-04-24T02:33:26.918Z,7.30
2018-04-24T02:35:53.200Z,7.50
2018-04-24T02:38:19.545Z,7.80
2018-04-24T02:40:45.815Z,7.75
2018-04-24T02:43:12.095Z,7.71
2018-04-24T02:45:41.713Z,7.56
2018-04-24T02:48:07.975Z,7.56
2018-04-24T02:50:34.317Z,7.27
2018-04-24T02:53:00.658Z,7.22
2018-04-24T02:55:27.029Z,7.31
2018-04-24T02:57:53.641Z,7.37
2018-04-24T03:00:19.907Z,7.50
2018-04-24T03:02:46.406Z,7.54
2018-04-24T03:05:12.969Z,7.75
2018-04-24T03:07:39.293Z,7.31
2018-04-24T03:10:05.613Z,7.14
2018-04-24T03:12:31.907Z,7.34
2018-04-24T03:14:58.185Z,7.52
2018-04-24T03:17:24.510Z,7.37
2018-04-24T03:19:50.779Z,7.04
2018-04-24T03:22:17.053Z,7.19
2018-04-24T03:24:43.801Z,7.37
2018-04-24T03:27:10.058Z,7.52
2018-04-24T03:29:36.365Z,7.59
2018-04-24T03:32:02.655Z,7.59
2018-04-24T03:34:29.361Z,7.25
2018-04-24T03:36:55.623Z,7.02
2018-04-24T03:39:21.903Z,6.89
2018-04-24T03:41:48.669Z,6.75
2018-04-24T03:44:14.976Z,7.17
2018-04-24T03:46:41.246Z,7.56
2018-04-24T03:49:07.656Z,7.77
2018-04-24T03:51:33.978Z,7.99
2018-04-24T03:54:00.247Z,8.18
2018-04-24T03:56:26.591Z,7.84
2018-04-24T03:58:53.799Z,7.55
2018-04-24T04:01:22.962Z,7.81
2018-04-24T04:03:49.227Z,7.99
2018-04-24T04:06:15.611Z,8.17
2018-04-24T04:08:41.876Z,7.97
2018-04-24T04:11:08.230Z,7.72
2018-04-24T04:13:34.558Z,7.98
2018-04-24T04:16:00.918Z,7.89
2018-04-24T04:18:39.610Z,7.92
2018-04-24T04:21:18.095Z,8.29
2018-04-24T04:23:56.614Z,8.36
2018-04-24T04:26:22.984Z,7.94
2018-04-24T04:28:49.264Z,7.72
2018-04-24T04:31:15.540Z,7.97
2018-04-24T04:33:42.167Z,8.50
2018-04-24T04:36:08.441Z,8.25
2018-04-24T04:38:34.752Z,8.18
2018-04-24T04:41:01.021Z,8.34
2018-04-24T04:43:27.358Z,8.65
2018-04-24T04:45:53.621Z,9.09
2018-04-24T04:48:19.887Z,9.50
2018-04-24T04:50:46.387Z,10.00
2018-04-24T04:53:12.638Z,10.39
2018-04-24T04:55:39.007Z,10.65
2018-04-24T04:58:05.603Z,10.82
2018-04-24T05:00:31.879Z,11.11
2018-04-24T05:02:58.174Z,11.40
2018-04-24T05:05:24.485Z,11.75
2018-04-24T05:07:50.755Z,12.03
2018-04-24T05:10:17.011Z,12.18
2018-04-24T05:12:43.367Z,12.15
2018-04-24T05:15:09.637Z,12.42
2018-04-24T05:17:35.903Z,12.48
2018-04-24T05:20:02.433Z,12.66
2018-04-24T05:22:28.672Z,12.49
2018-04-24T05:24:54.950Z,12.38
2018-04-24T05:27:21.264Z,12.58
2018-04-24T05:29:47.530Z,13.17
2018-04-24T05:32:13.790Z,13.47
2018-04-24T05:34:40.342Z,13.86
2018-04-24T05:37:06.638Z,14.10
2018-04-24T05:39:33.015Z,14.39
2018-04-24T05:41:59.287Z,14.54
2018-04-24T05:44:25.575Z,14.44
2018-04-24T05:46:52.003Z,14.49
2018-04-24T05:49:18.257Z,14.76
2018-04-24T05:51:44.822Z,14.60
2018-04-24T05:54:11.407Z,14.68
2018-04-24T05:56:37.700Z,14.46
2018-04-24T05:59:04.102Z,14.22
2018-04-24T06:01:30.324Z,14.39
2018-04-24T06:03:56.591Z,14.64
2018-04-24T06:06:22.966Z,14.96
2018-04-24T06:08:49.241Z,14.87
2018-04-24T06:11:15.519Z,14.93
2018-04-24T06:13:42.158Z,15.41
2018-04-24T06:16:08.482Z,15.83
2018-04-24T06:18:34.797Z,15.74
2018-04-24T06:21:01.314Z,15.94
2018-04-24T06:23:27.604Z,16.18
2018-04-24T06:25:53.884Z,16.60
2018-04-24T06:28:20.306Z,16.97
2018-04-24T06:30:46.516Z,17.15
2018-04-24T06:33:12.879Z,17.46
2018-04-24T06:35:39.158Z,16.96
2018-04-24T06:38:05.440Z,16.46
2018-04-24T06:40:33.523Z,16.95
2018-04-24T06:42:59.840Z,17.06
2018-04-24T06:45:26.124Z,16.99
2018-04-24T06:47:52.462Z,17.08
2018-04-24T06:50:18.821Z,17.18
2018-04-24T06:52:45.096Z,17.18
2018-04-24T06:55:11.383Z,17.41
2018-04-24T06:57:37.946Z,17.68
2018-04-24T07:00:05.970Z,17.51
2018-04-24T07:02:32.250Z,17.90
2018-04-24T07:04:58.535Z,18.23
2018-04-24T07:07:25.415Z,18.67
2018-04-24T07:09:51.682Z,18.60
2018-04-24T07:12:17.942Z,18.52
2018-04-24T07:14:44.246Z,18.87
2018-04-24T07:20:40.370Z,19.67
2018-04-24T07:23:06.692Z,19.84
2018-04-24T07:25:33.015Z,19.86
2018-04-24T07:27:59.267Z,20.06
2018-04-24T07:30:25.580Z,20.35
2018-04-24T07:32:51.934Z,20.62
2018-04-24T07:35:18.361Z,20.63
2018-04-24T07:37:44.623Z,20.40
2018-04-24T07:40:11.135Z,20.24
2018-04-24T07:42:37.454Z,20.23
2018-04-24T07:45:03.771Z,20.51
2018-04-24T07:47:30.046Z,20.71
2018-04-24T07:49:56.964Z,20.51
2018-04-24T07:52:23.221Z,20.38
2018-04-24T07:54:49.573Z,20.44
2018-04-24T07:57:15.840Z,20.62
2018-04-24T07:59:42.114Z,20.80
2018-04-24T08:02:13.293Z,21.13
2018-04-24T08:04:39.627Z,21.38
2018-04-24T08:07:05.894Z,21.54
2018-04-24T08:09:32.621Z,21.53
2018-04-24T08:11:58.888Z,21.87
2018-04-24T08:14:25.220Z,21.75
2018-04-24T08:16:51.501Z,21.80
2018-04-24T08:19:17.782Z,22.34
2018-04-24T08:21:44.106Z,22.44
2018-04-24T08:24:10.372Z,22.18
2018-04-24T08:26:37.155Z,22.20
2018-04-24T08:29:03.831Z,22.15
2018-04-24T08:31:30.111Z,22.66
2018-04-24T08:33:56.375Z,22.77
2018-04-24T08:36:22.685Z,22.88
2018-04-24T08:38:48.948Z,22.67
2018-04-24T08:41:15.222Z,23.06
2018-04-24T08:43:41.539Z,23.31
2018-04-24T08:46:07.848Z,23.34
2018-04-24T08:48:34.132Z,23.66
2018-04-24T08:51:00.733Z,24.06
2018-04-24T08:53:27.005Z,23.98
2018-04-24T08:55:53.312Z,24.02
2018-04-24T08:58:19.986Z,24.30
2018-04-24T09:00:46.274Z,23.93
2018-04-24T09:03:12.967Z,24.44
2018-04-24T09:05:39.328Z,24.49
2018-04-24T09:08:05.605Z,24.87
2018-04-24T09:10:31.888Z,25.09
2018-04-24T09:12:58.578Z,25.30
2018-04-24T09:15:24.962Z,25.42
2018-04-24T09:17:51.250Z,24.86
2018-04-24T09:20:17.535Z,25.24
2018-04-24T09:22:43.874Z,25.41
2018-04-24T09:25:10.233Z,25.38
2018-04-24T09:27:36.566Z,25.53
2018-04-24T09:30:03.839Z,26.29
2018-04-24T09:32:30.252Z,26.18
2018-04-24T09:34:56.775Z,26.18
2018-04-24T09:37:23.139Z,26.26
2018-04-24T09:39:49.403Z,26.30
2018-04-24T09:42:15.667Z,26.17
2018-04-24T09:44:41.991Z,26.17
2018-04-24T09:47:08.288Z,26.94
2018-04-24T09:49:34.638Z,26.59
2018-04-24T09:52:03.645Z,27.37
2018-04-24T09:54:30.075Z,27.33
2018-04-24T09:56:56.368Z,27.50
2018-04-24T09:59:22.659Z,26.90
2018-04-24T10:01:48.975Z,26.94
2018-04-24T10:04:15.244Z,27.01
2018-04-24T10:06:41.530Z,27.07
2018-04-24T10:09:07.840Z,27.10
2018-04-24T10:11:34.111Z,27.10
2018-04-24T10:14:00.385Z,27.03
2018-04-24T10:16:26.781Z,26.85
2018-04-24T10:18:53.060Z,26.95
2018-04-24T10:21:19.345Z,26.94
2018-04-24T10:23:45.650Z,27.14
2018-04-24T10:26:12.396Z,26.56
2018-04-24T10:28:38.658Z,26.96
2018-04-24T10:31:04.984Z,26.98
2018-04-24T10:33:31.982Z,26.84
2018-04-24T10:35:58.938Z,27.01
2018-04-24T10:38:25.448Z,27.21
2018-04-24T10:40:51.723Z,27.47
2018-04-24T10:43:18.103Z,27.16
2018-04-24T10:45:44.369Z,26.29
2018-04-24T10:48:10.695Z,26.77
2018-04-24T10:50:37.000Z,27.07
2018-04-24T10:53:03.367Z,27.30
2018-04-24T10:55:29.647Z,27.33
2018-04-24T10:57:55.923Z,27.15
2018-04-24T11:00:22.312Z,27.46
2018-04-24T11:02:48.586Z,27.61
2018-04-24T11:05:15.133Z,27.51
2018-04-24T11:07:42.098Z,27.78
2018-04-24T11:10:08.388Z,27.55
2018-04-24T11:12:34.651Z,27.54
2018-04-24T11:15:01.380Z,27.37
2018-04-24T11:17:27.755Z,27.66
2018-04-24T11:19:54.118Z,27.69
2018-04-24T11:22:20.413Z,27.61
2018-04-24T11:24:46.723Z,27.40
2018-04-24T11:27:13.209Z,27.76
2018-04-24T11:29:39.535Z,27.89
2018-04-24T11:32:05.820Z,28.00
2018-04-24T11:34:32.200Z,27.63
2018-04-24T11:36:58.437Z,27.90
2018-04-24T11:39:24.726Z,28.11
2018-04-24T11:41:51.425Z,28.15
2018-04-24T11:44:17.713Z,28.12
2018-04-24T11:46:44.037Z,28.36
2018-04-24T11:49:10.376Z,27.86
2018-04-24T11:51:36.696Z,27.83
2018-04-24T11:54:03.192Z,27.88
2018-04-24T11:56:29.464Z,28.21
2018-04-24T11:58:55.863Z,27.84
2018-04-24T12:01:24.028Z,28.06
2018-04-24T12:03:50.292Z,28.17
2018-04-24T12:06:16.630Z,27.95
2018-04-24T12:08:42.959Z,28.00
2018-04-24T12:11:09.230Z,28.21
2018-04-24T12:13:35.582Z,28.48
2018-04-24T12:16:01.841Z,27.94
2018-04-24T12:18:28.346Z,28.20
2018-04-24T12:20:54.669Z,28.57
2018-04-24T12:23:21.021Z,28.16
2018-04-24T12:25:47.355Z,28.53
2018-04-24T12:28:13.946Z,29.14
2018-04-24T12:30:40.239Z,28.68
2018-04-24T12:33:06.515Z,29.01
2018-04-24T12:35:32.782Z,29.16
2018-04-24T12:37:59.161Z,28.35
2018-04-24T12:40:25.471Z,28.25
2018-04-24T12:42:51.758Z,28.01
2018-04-24T12:45:18.173Z,27.98
2018-04-24T12:47:44.402Z,28.04
2018-04-24T12:50:10.663Z,28.41
2018-04-24T12:52:37.291Z,28.59
2018-04-24T12:55:03.592Z,28.25
2018-04-24T12:57:30.729Z,27.82
2018-04-24T12:59:57.007Z,28.12
2018-04-24T13:02:26.097Z,28.85
2018-04-24T13:04:52.544Z,28.89
2018-04-24T13:07:18.819Z,28.75
2018-04-24T13:09:45.112Z,28.88
2018-04-24T13:12:11.706Z,28.76
2018-04-24T13:14:38.016Z,29.21
2018-04-24T13:17:04.285Z,28.91
2018-04-24T13:19:30.556Z,28.69
2018-04-24T13:21:56.879Z,28.87
2018-04-24T13:24:23.167Z,28.69
2018-04-24T13:26:49.583Z,28.57
2018-04-24T13:29:15.861Z,27.80
2018-04-24T13:31:42.980Z,28.20
2018-04-24T13:34:09.645Z,28.37
2018-04-24T13:36:35.975Z,28.09
2018-04-24T13:39:02.366Z,27.93
2018-04-24T13:41:28.644Z,28.39
2018-04-24T13:43:54.971Z,28.36
2018-04-24T13:46:21.339Z,28.87
2018-04-24T13:48:47.648Z,29.44
2018-04-24T13:51:13.916Z,28.35
2018-04-24T13:53:40.388Z,29.23
2018-04-24T13:56:06.664Z,29.74
2018-04-24T13:58:33.060Z,29.94
2018-04-24T14:00:59.352Z,29.96
2018-04-24T14:03:25.827Z,29.78
2018-04-24T14:05:55.692Z,29.85
2018-04-24T14:08:21.975Z,30.27
2018-04-24T14:10:48.599Z,29.48
2018-04-24T14:13:14.859Z,29.97
2018-04-24T14:15:41.135Z,29.59
2018-04-24T14:18:07.428Z,30.08
2018-04-24T14:20:34.039Z,30.53
2018-04-24T14:23:00.456Z,30.68
2018-04-24T14:25:26.746Z,30.76
2018-04-24T14:27:53.030Z,31.16
2018-04-24T14:30:19.352Z,30.59
2018-04-24T14:32:45.691Z,31.74
2018-04-24T14:35:11.955Z,31.49
2018-04-24T14:37:38.269Z,31.13
2018-04-24T14:40:04.585Z,31.32
2018-04-24T14:42:30.855Z,30.64
2018-04-24T14:44:57.258Z,30.47
2018-04-24T14:47:23.540Z,31.39
2018-04-24T14:49:49.813Z,32.02
2018-04-24T14:52:19.325Z,31.82
2018-04-24T14:57:19.161Z,31.42
2018-04-24T14:59:45.488Z,31.24
2018-04-24T15:02:14.974Z,30.85
2018-04-24T15:04:41.603Z,29.94
2018-04-24T15:07:11.263Z,30.24
2018-04-24T15:09:38.080Z,28.16
2018-04-24T15:12:04.415Z,27.20
2018-04-24T15:14:30.966Z,26.92
2018-04-24T15:16:59.801Z,26.71
2018-04-24T15:19:30.056Z,26.24
2018-04-24T15:21:56.387Z,26.29
2018-04-24T15:24:22.778Z,26.21
2018-04-24T15:26:49.040Z,26.05
2018-04-24T15:29:15.837Z,25.89
2018-04-24T15:31:42.557Z,26.06
2018-04-24T15:34:08.838Z,25.99
2018-04-24T15:36:35.150Z,25.86
2018-04-24T15:39:01.416Z,25.64
2018-04-24T15:41:27.764Z,25.34
2018-04-24T15:43:54.040Z,25.29
2018-04-24T15:46:20.344Z,25.33
2018-04-24T15:48:46.675Z,25.26
2018-04-24T15:51:12.956Z,24.87
2018-04-24T15:53:39.222Z,25.03
2018-04-24T15:56:05.522Z,25.04
2018-04-24T15:58:31.796Z,24.98
2018-04-24T16:00:58.058Z,24.96
2018-04-24T16:03:25.231Z,24.91
2018-04-24T16:05:51.534Z,24.81
2018-04-24T16:08:17.863Z,24.69
2018-04-24T16:10:44.135Z,24.65
2018-04-24T16:13:10.476Z,24.50
2018-04-24T16:15:36.754Z,24.49
2018-04-24T16:18:03.182Z,24.31
2018-04-24T16:20:29.464Z,24.15
2018-04-24T16:22:55.748Z,24.17
2018-04-24T16:25:22.334Z,24.13
2018-04-24T16:27:48.618Z,24.10
2018-04-24T16:30:14.937Z,24.05
2018-04-24T16:32:41.280Z,23.99
2018-04-24T16:35:07.653Z,24.04
2018-04-24T16:37:33.923Z,24.01
2018-04-24T16:40:00.178Z,23.66
2018-04-24T16:42:26.884Z,23.54
2018-04-24T16:44:53.169Z,23.31
2018-04-24T16:47:19.506Z,23.20
2018-04-24T16:49:45.842Z,22.95
2018-04-24T16:52:12.180Z,22.79
2018-04-24T16:54:38.595Z,22.61
2018-04-24T16:57:05.469Z,22.55
2018-04-24T16:59:31.692Z,22.42
2018-04-24T17:01:57.966Z,22.42
2018-04-24T17:04:24.630Z,22.33
2018-04-24T17:06:50.909Z,22.13
2018-04-24T17:09:17.225Z,22.06
2018-04-24T17:11:43.552Z,21.88
2018-04-24T17:14:09.905Z,21.59
2018-04-24T17:16:36.171Z,21.30
2018-04-24T17:19:02.455Z,21.21
2018-04-24T17:21:29.199Z,21.03
2018-04-24T17:23:55.498Z,20.95
2018-04-24T17:26:21.778Z,20.83
2018-04-24T17:28:48.088Z,20.64
2018-04-24T17:31:14.407Z,20.56
2018-04-24T17:33:40.819Z,20.44
2018-04-24T17:36:07.107Z,20.30
2018-04-24T17:38:33.391Z,20.23
2018-04-24T17:41:00.015Z,20.09
2018-04-24T17:43:27.158Z,19.94
2018-04-24T17:45:53.422Z,19.80
2018-04-24T17:48:19.801Z,19.42
2018-04-24T17:50:46.075Z,19.16
2018-04-24T17:53:12.434Z,19.40
2018-04-24T17:55:38.937Z,19.35
2018-04-24T17:58:05.225Z,19.20
2018-04-24T18:00:31.597Z,18.90
2018-04-24T18:02:57.871Z,19.01
2018-04-24T18:05:24.682Z,18.90
2018-04-24T18:07:50.956Z,18.75
2018-04-24T18:10:17.413Z,18.55
2018-04-24T18:12:43.707Z,18.46
2018-04-24T18:15:09.980Z,18.25
2018-04-24T18:17:36.375Z,18.07
2018-04-24T18:20:02.795Z,18.17
2018-04-24T18:22:29.136Z,18.02
2018-04-24T18:24:55.428Z,17.77
2018-04-24T18:27:21.735Z,17.82
2018-04-24T18:29:48.103Z,17.81
2018-04-24T18:32:14.388Z,17.85
2018-04-24T18:34:40.705Z,17.87
2018-04-24T18:37:10.973Z,17.69
2018-04-24T18:39:37.267Z,17.46
2018-04-24T18:42:03.603Z,17.62
2018-04-24T18:44:29.945Z,17.78
2018-04-24T18:46:56.230Z,18.11
2018-04-24T18:49:22.500Z,18.44
2018-04-24T18:51:48.946Z,18.73
2018-04-24T18:54:15.295Z,18.86
2018-04-24T18:56:41.844Z,18.90
2018-04-24T18:59:08.117Z,19.01
2018-04-24T19:01:34.430Z,19.18
2018-04-24T19:04:00.721Z,19.28
2018-04-24T19:06:27.087Z,19.44
2018-04-24T19:08:53.368Z,19.54
2018-04-24T19:11:19.708Z,19.59
2018-04-24T19:13:46.043Z,19.59
2018-04-24T19:16:12.441Z,19.65
2018-04-24T19:18:44.663Z,19.61
2018-04-24T19:21:10.985Z,19.57
2018-04-24T19:23:37.313Z,19.55
2018-04-24T19:26:03.567Z,19.52
2018-04-24T19:28:29.921Z,19.61
2018-04-24T19:30:56.249Z,19.44
2018-04-24T19:33:22.725Z,19.37
2018-04-24T19:35:49.102Z,19.31
2018-04-24T19:38:16.351Z,19.13
2018-04-24T19:40:48.590Z,18.93
2018-04-24T19:43:14.998Z,18.75
2018-04-24T19:45:41.380Z,18.59
2018-04-24T19:48:07.923Z,18.54
2018-04-24T19:50:35.174Z,18.56
2018-04-24T19:53:01.529Z,18.48
2018-04-24T19:55:27.886Z,18.31
2018-04-24T19:57:54.218Z,18.36
2018-04-24T20:00:20.557Z,18.36
2018-04-24T20:02:46.931Z,18.37
2018-04-24T20:05:13.206Z,18.34
2018-04-24T20:07:39.472Z,18.34
2018-04-24T20:10:08.875Z,18.26
2018-04-24T20:12:35.163Z,18.11
2018-04-24T20:15:01.580Z,18.18
2018-04-24T20:17:27.915Z,18.17
2018-04-24T20:19:54.274Z,18.10
2018-04-24T20:22:20.559Z,17.95
2018-04-24T20:24:46.862Z,17.85
2018-04-24T20:27:13.322Z,17.70
2018-04-24T20:29:39.593Z,17.43
2018-04-24T20:32:05.870Z,17.52
2018-04-24T20:34:32.187Z,17.52
2018-04-24T20:36:58.454Z,17.36
2018-04-24T20:39:24.721Z,17.35
2018-04-24T20:41:51.062Z,17.19
2018-04-24T20:44:17.527Z,17.15
2018-04-24T20:46:43.915Z,17.07
2018-04-24T20:49:10.179Z,16.73
2018-04-24T20:51:36.563Z,16.62
2018-04-24T20:54:02.858Z,16.67
2018-04-24T20:56:29.165Z,16.55
2018-04-24T20:58:56.334Z,16.24
2018-04-24T21:01:22.616Z,16.15
2018-04-24T21:03:49.452Z,16.18
2018-04-24T21:06:15.763Z,16.22
2018-04-24T21:08:42.019Z,16.16
2018-04-24T21:11:08.458Z,16.18
2018-04-24T21:13:34.737Z,16.22
2018-04-24T21:16:04.275Z,16.22
2018-04-24T21:18:30.551Z,16.21
2018-04-24T21:23:29.480Z,15.58
2018-04-24T21:25:55.860Z,14.63
2018-04-24T21:28:22.223Z,14.20
2018-04-24T21:30:48.502Z,14.17
2018-04-24T21:33:14.767Z,14.17
2018-04-24T21:35:41.141Z,14.01
2018-04-24T21:38:07.407Z,14.13
2018-04-24T21:40:33.710Z,14.14
2018-04-24T21:42:59.996Z,14.18
2018-04-24T21:45:26.313Z,14.31
2018-04-24T21:47:52.650Z,14.34
2018-04-24T21:50:19.155Z,14.51
2018-04-24T21:52:45.510Z,14.66
2018-04-24T21:55:11.762Z,14.73
2018-04-24T21:57:38.053Z,14.42
2018-04-24T22:00:04.447Z,14.23
2018-04-24T22:02:30.714Z,14.29
2018-04-24T22:04:57.091Z,14.35
2018-04-24T22:07:23.418Z,14.42
2018-04-24T22:09:49.682Z,14.51
2018-04-24T22:12:15.969Z,14.54
2018-04-24T22:14:42.510Z,14.37
2018-04-24T22:17:08.795Z,14.38
2018-04-24T22:19:35.079Z,14.32
2018-04-24T22:22:01.407Z,13.87
2018-04-24T22:24:27.911Z,12.75
2018-04-24T22:26:54.187Z,12.39
2018-04-24T22:29:20.446Z,12.40
2018-04-24T22:31:46.802Z,12.57
2018-04-24T22:34:13.127Z,12.62
2018-04-24T22:36:39.444Z,12.87
2018-04-24T22:39:05.804Z,13.13
2018-04-24T22:41:32.126Z,13.14
2018-04-24T22:43:58.459Z,13.37
2018-04-24T22:46:24.737Z,13.62
2018-04-24T22:48:51.418Z,13.77
2018-04-24T22:51:17.684Z,13.91
2018-04-24T22:53:43.952Z,14.07
2018-04-24T22:56:10.306Z,14.18
2018-04-24T22:58:36.593Z,14.26
2018-04-24T23:01:02.879Z,14.34
2018-04-24T23:03:29.300Z,14.35
2018-04-24T23:05:55.583Z,14.29
2018-04-24T23:08:21.853Z,14.28
2018-04-24T23:11:00.394Z,14.28
2018-04-24T23:13:38.893Z,14.40
2018-04-24T23:16:17.362Z,14.34
2018-04-24T23:18:55.767Z,14.36
2018-04-24T23:21:21.829Z,14.37
2018-04-24T23:23:48.113Z,14.42
2018-04-24T23:26:14.416Z,14.46
2018-04-24T23:28:43.402Z,14.37
2018-04-24T23:31:09.714Z,14.41
2018-04-24T23:33:36.033Z,14.41
2018-04-24T23:36:02.439Z,14.36
2018-04-24T23:38:28.816Z,14.37
2018-04-24T23:40:55.104Z,14.28
2018-04-24T23:43:23.982Z,14.02
2018-04-24T23:45:50.321Z,14.23
2018-04-24T23:48:16.601Z,13.91
2018-04-24T23:50:42.898Z,13.69
2018-04-24T23:53:09.262Z,13.72
2018-04-24T23:55:35.558Z,13.91
2018-04-24T23:58:01.849Z,14.08
